Time;durP1;ratioP1;P1;durP2;ratioP2;P2;SDS_P1;SDS_P2;PMS_P1;PMS_P2;Temp;Humidity;BMP_temperature;BMP_pressure;BME280_temperature;BME280_humidity;BME280_pressure;Samples;Min_cycle;Max_cycle;Signal;HPM_P1;HPM_P2
2022/06/03 00:02:13;;;;;;;5.07;4.67;;;;;;;12.55;55.31;101952.53;4921741;28;100350;-52
2022/06/03 00:05:03;;;;;;;5.83;5.33;;;;;;;12.52;55.49;101951.47;4922777;28;96925;-49
2022/06/03 00:07:38;;;;;;;4.70;4.10;;;;;;;12.50;55.57;101956.72;4922619;28;96897;-49
2022/06/03 00:10:35;;;;;;;3.00;2.80;;;;;;;12.45;56.13;101957.38;4908001;28;102437;-52
2022/06/03 00:13:38;;;;;;;3.40;1.97;;;;;;;12.43;56.13;101959.06;4906741;28;100987;-50
2022/06/03 00:16:19;;;;;;;1.97;1.77;;;;;;;12.38;55.96;101963.28;4922610;28;97435;-50
2022/06/03 00:19:04;;;;;;;1.80;1.70;;;;;;;12.29;55.73;101960.59;4925361;28;97148;-51
2022/06/03 00:21:41;;;;;;;1.90;1.80;;;;;;;12.22;55.44;101962.94;4923913;28;97228;-49
2022/06/03 00:24:22;;;;;;;2.90;2.70;;;;;;;12.20;56.18;101962.66;4927101;28;97232;-53
2022/06/03 00:26:53;;;;;;;5.43;5.03;;;;;;;12.17;55.77;101966.34;4920288;28;97094;-49
2022/06/03 00:30:08;;;;;;;4.40;4.10;;;;;;;12.07;56.42;101967.66;4925811;28;97454;-52
2022/06/03 00:32:52;;;;;;;2.60;2.50;;;;;;;11.97;55.57;101959.44;4904388;28;100821;-49
2022/06/03 00:35:34;;;;;;;2.10;2.00;;;;;;;11.95;55.54;101967.41;4907798;28;97580;-51
2022/06/03 00:38:23;;;;;;;2.20;2.10;;;;;;;11.95;55.86;101975.69;4916670;28;97337;-52
2022/06/03 00:41:05;;;;;;;1.93;1.83;;;;;;;11.93;56.33;101969.09;4921013;28;97047;-51
2022/06/03 00:43:49;;;;;;;1.80;1.70;;;;;;;11.90;55.73;101970.81;4928190;28;97979;-51
2022/06/03 00:46:33;;;;;;;1.60;1.50;;;;;;;11.90;56.53;101984.59;4917501;28;101826;-49
2022/06/03 00:49:25;;;;;;;1.27;1.27;;;;;;;11.90;56.44;101984.59;4923305;28;96939;-55
2022/06/03 00:52:09;;;;;;;1.00;1.00;;;;;;;11.87;55.65;101973.75;4926836;28;97494;-49
2022/06/03 00:54:55;;;;;;;1.37;1.37;;;;;;;11.83;56.31;101982.22;4924733;28;97566;-54
2022/06/03 00:57:39;;;;;;;3.70;1.60;;;;;;;11.80;55.54;101972.09;4923953;28;101541;-51
2022/06/03 01:00:22;;;;;;;1.50;1.40;;;;;;;11.79;56.25;101969.81;4919784;28;97412;-51
2022/06/03 01:03:08;;;;;;;1.07;1.07;;;;;;;11.70;55.69;101959.63;4925725;28;97439;-50
2022/06/03 01:06:08;;;;;;;1.00;1.00;;;;;;;11.66;56.52;101972.78;4923059;28;100483;-50
2022/06/03 01:08:55;;;;;;;1.70;1.60;;;;;;;11.65;56.27;101974.00;4921006;28;100147;-50
2022/06/03 01:11:50;;;;;;;2.50;1.70;;;;;;;11.61;56.53;101970.66;4927774;28;97514;-51
2022/06/03 01:14:21;;;;;;;2.27;2.17;;;;;;;11.55;56.09;101971.75;4916928;28;99411;-52
2022/06/03 01:17:12;;;;;;;1.70;1.40;;;;;;;11.48;56.71;101959.09;4927353;28;97061;-49
2022/06/03 01:19:55;;;;;;;1.83;1.73;;;;;;;11.41;56.36;101964.91;4921369;28;100314;-49
2022/06/03 01:22:57;;;;;;;2.43;1.77;;;;;;;11.42;56.76;101965.69;4920976;28;97201;-49
2022/06/03 01:25:46;;;;;;;1.73;1.63;;;;;;;11.36;56.67;101957.28;4923135;28;97310;-51
2022/06/03 01:28:44;;;;;;;1.30;1.30;;;;;;;11.32;56.87;101959.44;4926223;28;98804;-51
2022/06/03 01:31:37;;;;;;;1.07;1.07;;;;;;;11.21;56.43;101953.66;4921602;28;100995;-49
2022/06/03 01:34:24;;;;;;;2.50;1.00;;;;;;;11.09;56.96;101947.16;4923379;28;97532;-49
2022/06/03 01:37:14;;;;;;;1.43;1.43;;;;;;;11.04;56.40;101952.50;4919800;28;97081;-52
2022/06/03 01:40:27;;;;;;;1.07;1.07;;;;;;;10.99;56.93;101953.88;4923431;28;101870;-49
2022/06/03 01:43:45;;;;;;;1.20;1.20;;;;;;;10.95;57.03;101952.53;4886072;28;101620;-53
2022/06/03 01:46:10;;;;;;;1.10;1.10;;;;;;;10.91;56.00;101949.19;4899404;28;96928;-49
2022/06/03 01:48:35;;;;;;;3.77;1.50;;;;;;;10.91;56.19;101943.66;4900152;28;97503;-49
2022/06/03 01:51:01;;;;;;;1.50;1.40;;;;;;;10.90;56.14;101942.91;4929177;28;96888;-51
2022/06/03 01:53:55;;;;;;;1.37;1.27;;;;;;;10.87;56.92;101937.56;4920913;28;97656;-52
2022/06/03 01:56:36;;;;;;;1.50;1.40;;;;;;;10.88;56.30;101936.31;4915596;28;97769;-49
2022/06/03 01:59:22;;;;;;;1.53;1.43;;;;;;;10.86;56.78;101938.78;4921563;28;97082;-49
2022/06/03 02:02:29;;;;;;;1.20;1.20;;;;;;;10.82;56.99;101936.19;4918690;28;100567;-53
2022/06/03 02:04:57;;;;;;;1.40;1.30;;;;;;;10.84;56.27;101938.47;4922130;28;100375;-52
2022/06/03 02:08:01;;;;;;;1.67;1.60;;;;;;;10.84;56.43;101935.72;4924381;28;96898;-54
2022/06/03 02:10:55;;;;;;;1.23;1.13;;;;;;;10.79;56.22;101941.88;4912941;28;97165;-51
2022/06/03 02:13:46;;;;;;;1.70;1.60;;;;;;;10.73;57.14;101927.19;4886621;28;103172;-51
2022/06/03 02:16:36;;;;;;;1.03;1.00;;;;;;;10.75;56.80;101935.75;4920957;28;100334;-49
2022/06/03 02:19:27;;;;;;;1.00;1.00;;;;;;;10.68;57.01;101925.81;4921833;28;97342;-52
2022/06/03 02:22:20;;;;;;;1.30;1.30;;;;;;;10.64;56.87;101927.22;4922860;28;97198;-53
2022/06/03 02:25:11;;;;;;;1.40;1.30;;;;;;;10.57;57.20;101920.06;4923734;28;102007;-49
2022/06/03 02:27:51;;;;;;;1.20;1.13;;;;;;;10.56;56.82;101929.53;4928110;28;101606;-48
2022/06/03 02:30:54;;;;;;;0.90;0.90;;;;;;;10.54;57.17;101927.25;4922552;28;96782;-48
2022/06/03 02:34:07;;;;;;;1.30;1.20;;;;;;;10.50;57.19;101926.63;4931047;28;97402;-51
2022/06/03 02:36:54;;;;;;;1.50;1.20;;;;;;;10.47;57.18;101935.03;4907579;28;102000;-50
2022/06/03 02:39:49;;;;;;;1.17;1.07;;;;;;;10.48;56.93;101933.81;4904197;28;102424;-50
2022/06/03 02:42:43;;;;;;;1.33;1.30;;;;;;;10.47;57.31;101924.78;4919640;28;97441;-49
2022/06/03 02:45:48;;;;;;;1.20;1.10;;;;;;;10.43;57.05;101924.19;4921137;28;96938;-50
2022/06/03 02:48:25;;;;;;;1.50;1.40;;;;;;;10.41;57.07;101921.13;4920292;28;101298;-49
2022/06/03 02:51:09;;;;;;;1.10;1.10;;;;;;;10.40;56.67;101921.56;4928340;28;97562;-53
2022/06/03 02:54:02;;;;;;;1.40;1.40;;;;;;;10.40;57.05;101924.31;4927234;28;97093;-50
2022/06/03 02:56:42;;;;;;;3.03;1.53;;;;;;;10.39;56.77;101922.81;4923622;28;97521;-52
2022/06/03 02:59:35;;;;;;;1.27;1.27;;;;;;;10.39;57.32;101926.34;4925129;28;100604;-51
2022/06/03 03:02:30;;;;;;;1.47;1.37;;;;;;;10.37;57.29;101923.28;4920365;28;101231;-49
2022/06/03 03:05:02;;;;;;;1.40;1.30;;;;;;;10.35;56.73;101925.69;4912991;28;97836;-53
2022/06/03 03:07:42;;;;;;;1.50;1.40;;;;;;;10.36;57.21;101924.50;4919483;28;96989;-51
2022/06/03 03:10:45;;;;;;;2.60;1.27;;;;;;;10.36;57.29;101923.72;4923225;28;97268;-51
2022/06/03 03:13:25;;;;;;;2.10;1.13;;;;;;;10.35;56.93;101924.97;4923120;28;101541;-52
2022/06/03 03:16:16;;;;;;;1.30;1.30;;;;;;;10.34;57.35;101926.16;4924472;28;97181;-51
2022/06/03 03:19:00;;;;;;;1.87;1.60;;;;;;;10.31;56.92;101938.84;4922326;28;97032;-50
2022/06/03 03:22:21;;;;;;;1.60;1.60;;;;;;;10.31;57.66;101929.84;4919580;28;100544;-51
2022/06/03 03:25:01;;;;;;;1.03;1.03;;;;;;;10.30;57.34;101929.09;4874255;28;100239;-49
2022/06/03 03:27:55;;;;;;;1.20;1.20;;;;;;;10.30;57.65;101937.34;4922463;28;97357;-52
2022/06/03 03:30:48;;;;;;;2.30;1.07;;;;;;;10.29;57.70;101951.53;4921825;28;96832;-49
2022/06/03 03:33:38;;;;;;;1.77;1.50;;;;;;;10.31;57.07;101929.84;4926202;28;102061;-53
2022/06/03 03:36:15;;;;;;;1.30;1.30;;;;;;;10.28;57.33;101933.50;4927660;28;101322;-53
2022/06/03 03:39:08;;;;;;;1.20;1.20;;;;;;;10.25;57.71;101928.91;4928847;28;97273;-49
2022/06/03 03:42:00;;;;;;;1.10;1.10;;;;;;;10.21;57.56;101926.34;4922802;28;96864;-49
2022/06/03 03:44:49;;;;;;;1.40;1.30;;;;;;;10.20;57.82;101929.56;4924847;28;100619;-50
2022/06/03 03:47:32;;;;;;;2.97;1.37;;;;;;;10.21;57.05;101929.09;4905418;28;100254;-49
2022/06/03 03:50:10;;;;;;;3.00;1.20;;;;;;;10.22;57.68;101927.84;4923461;28;97601;-51
2022/06/03 03:52:47;;;;;;;1.30;1.10;;;;;;;10.25;57.61;101929.69;4926945;28;97045;-51
2022/06/03 03:55:58;;;;;;;1.20;1.20;;;;;;;10.24;57.94;101930.16;4924197;28;97259;-52
2022/06/03 03:58:45;;;;;;;2.50;1.33;;;;;;;10.27;57.09;101940.22;4910827;28;100268;-50
2022/06/03 04:01:29;;;;;;;1.10;1.10;;;;;;;10.26;57.03;101938.72;4921601;28;97335;-55
2022/06/03 04:04:14;;;;;;;2.20;1.40;;;;;;;10.27;57.15;101940.22;4928541;28;96859;-50
2022/06/03 04:06:50;;;;;;;1.10;1.10;;;;;;;10.26;57.11;101939.47;4920840;28;102023;-49
2022/06/03 04:09:15;;;;;;;1.00;1.00;;;;;;;10.29;57.08;101949.56;4927695;28;98064;-49
2022/06/03 04:11:55;;;;;;;1.27;1.10;;;;;;;10.30;57.66;101942.84;4923485;28;97200;-52
2022/06/03 04:14:20;;;;;;;1.40;1.40;;;;;;;10.29;57.13;101938.53;4923263;28;96856;-50
2022/06/03 04:16:58;;;;;;;1.20;1.20;;;;;;;10.30;57.50;101948.34;4925038;28;97236;-51
2022/06/03 04:19:35;;;;;;;1.00;1.00;;;;;;;10.32;57.54;101943.16;4924047;28;97180;-50
2022/06/03 04:22:15;;;;;;;0.80;0.80;;;;;;;10.35;57.35;101941.47;4927036;28;97189;-53
2022/06/03 04:25:05;;;;;;;3.50;1.03;;;;;;;10.36;58.21;101938.25;4922428;28;97048;-53
2022/06/03 04:27:58;;;;;;;1.27;1.17;;;;;;;10.38;57.62;101935.81;4922089;28;101891;-50
2022/06/03 04:30:48;;;;;;;1.27;1.17;;;;;;;10.36;57.72;101932.75;4922409;28;102651;-49
2022/06/03 04:33:50;;;;;;;1.50;1.40;;;;;;;10.35;58.33;101933.97;4920464;28;96962;-53
2022/06/03 04:36:34;;;;;;;1.00;0.77;;;;;;;10.35;57.32;101941.47;4921930;28;97217;-51
2022/06/03 04:39:16;;;;;;;1.30;1.17;;;;;;;10.35;58.36;101947.72;4922132;28;99214;-52
2022/06/03 04:41:44;;;;;;;1.47;1.20;;;;;;;10.39;57.59;101948.34;4924623;28;100872;-53
2022/06/03 04:44:41;;;;;;;1.30;1.20;;;;;;;10.44;58.49;101946.97;4934411;28;97899;-51
2022/06/03 04:47:31;;;;;;;1.13;1.13;;;;;;;10.46;57.95;101939.75;4919665;28;97189;-51
2022/06/03 04:50:28;;;;;;;0.97;0.93;;;;;;;10.47;58.65;101938.53;4919004;28;100420;-49
2022/06/03 04:53:14;;;;;;;1.03;1.00;;;;;;;10.49;58.61;101941.59;4921667;28;100261;-49
2022/06/03 04:56:06;;;;;;;1.20;1.20;;;;;;;10.50;58.79;101934.88;4921862;28;97329;-50
2022/06/03 04:59:08;;;;;;;1.30;1.20;;;;;;;10.56;58.86;101940.53;4920947;28;97056;-51
2022/06/03 05:02:01;;;;;;;1.30;1.30;;;;;;;10.64;58.86;101938.22;4925841;28;102605;-50
2022/06/03 05:04:36;;;;;;;1.30;1.20;;;;;;;10.68;57.99;101930.56;4923736;28;100346;-51
2022/06/03 05:07:40;;;;;;;1.10;0.90;;;;;;;10.73;58.91;101933.47;4926174;28;96858;-53
2022/06/03 05:10:08;;;;;;;1.03;1.03;;;;;;;10.78;57.96;101930.09;4924691;28;97232;-50
2022/06/03 05:12:45;;;;;;;1.20;1.10;;;;;;;10.87;58.70;101930.06;4926061;28;100548;-49
2022/06/03 05:15:48;;;;;;;2.30;0.93;;;;;;;10.96;59.05;101932.81;4924379;28;101851;-50
2022/06/03 05:18:26;;;;;;;1.27;1.17;;;;;;;11.04;58.09;101930.47;4920033;28;96822;-49
2022/06/03 05:21:03;;;;;;;1.20;1.20;;;;;;;11.15;58.68;101930.75;4924428;28;96695;-50
2022/06/03 05:23:31;;;;;;;1.07;0.97;;;;;;;11.22;58.37;101930.41;4923989;28;98600;-51
2022/06/03 05:26:34;;;;;;;0.83;0.83;;;;;;;11.29;59.50;101921.81;4928992;28;97523;-52
2022/06/03 05:29:08;;;;;;;1.47;1.10;;;;;;;11.39;59.01;101926.03;4921827;28;97290;-49
2022/06/03 05:32:11;;;;;;;1.00;0.90;;;;;;;11.49;59.66;101927.53;4927520;28;97381;-50
2022/06/03 05:35:14;;;;;;;1.33;1.23;;;;;;;11.62;59.61;101914.28;4922093;28;101949;-52
2022/06/03 05:38:17;;;;;;;1.50;1.30;;;;;;;11.73;60.35;101925.56;4920380;28;102723;-52
2022/06/03 05:41:04;;;;;;;1.13;0.90;;;;;;;11.87;60.09;101926.88;4924837;28;97019;-48
2022/06/03 05:43:47;;;;;;;0.90;0.90;;;;;;;12.01;59.51;101926.91;4927312;28;97001;-50
2022/06/03 05:46:49;;;;;;;0.93;0.83;;;;;;;12.15;60.02;101921.91;4922178;28;102422;-48
2022/06/03 05:49:34;;;;;;;1.30;1.27;;;;;;;12.27;58.98;101918.91;4921744;28;102800;-49
2022/06/03 05:52:39;;;;;;;1.30;1.30;;;;;;;12.43;60.38;101915.69;4914135;28;97238;-52
2022/06/03 05:55:22;;;;;;;2.10;1.10;;;;;;;12.58;60.10;101905.41;4920557;28;97195;-50
2022/06/03 05:58:24;;;;;;;1.20;1.13;;;;;;;12.73;60.19;101910.94;4924133;28;101943;-49
2022/06/03 06:01:24;;;;;;;1.63;1.53;;;;;;;12.92;60.99;101917.03;4922182;28;100342;-48
2022/06/03 06:03:59;;;;;;;1.20;1.20;;;;;;;13.09;59.27;101920.84;4924577;28;97418;-49
2022/06/03 06:06:31;;;;;;;1.30;1.17;;;;;;;13.23;59.24;101920.06;4918968;28;98122;-53
2022/06/03 06:09:47;;;;;;;2.23;1.40;;;;;;;13.39;60.94;101925.06;4927682;28;102077;-48
2022/06/03 06:12:39;;;;;;;1.47;1.40;;;;;;;13.52;61.05;101915.22;4899360;28;101736;-52
2022/06/03 06:15:39;;;;;;;9.87;1.67;;;;;;;13.69;60.43;101917.44;4926965;28;96622;-49
2022/06/03 06:18:27;;;;;;;1.40;1.30;;;;;;;13.87;60.17;101917.19;4921432;28;96932;-49
2022/06/03 06:21:17;;;;;;;1.60;1.50;;;;;;;14.01;59.61;101919.09;4921562;28;102332;-49
2022/06/03 06:23:45;;;;;;;1.47;1.37;;;;;;;14.19;59.52;101927.91;4923161;28;101576;-48
2022/06/03 06:26:48;;;;;;;2.67;1.77;;;;;;;14.36;60.00;101939.16;4924616;28;96969;-49
2022/06/03 06:29:52;;;;;;;2.10;1.30;;;;;;;14.50;59.90;101927.25;4913985;28;97022;-49
2022/06/03 06:32:56;;;;;;;1.17;1.17;;;;;;;14.67;59.38;101932.94;4904917;28;102545;-48
2022/06/03 06:35:50;;;;;;;1.10;1.10;;;;;;;14.84;59.99;101923.53;4895274;28;102768;-52
2022/06/03 06:38:22;;;;;;;1.20;1.20;;;;;;;15.00;58.92;101914.56;4915916;28;97336;-49
2022/06/03 06:41:09;;;;;;;1.67;1.40;;;;;;;15.16;59.35;101912.44;4921241;28;97306;-49
2022/06/03 06:43:47;;;;;;;1.20;1.20;;;;;;;15.32;58.73;101901.44;4921759;28;101847;-48
2022/06/03 06:46:44;;;;;;;5.47;1.77;;;;;;;15.50;59.45;101901.09;4917080;28;97050;-51
2022/06/03 06:49:15;;;;;;;1.60;1.50;;;;;;;15.62;58.34;101899.88;4921652;28;96966;-48
2022/06/03 06:51:53;;;;;;;1.60;1.50;;;;;;;15.80;58.82;101898.69;4923293;28;97264;-50
2022/06/03 06:54:46;;;;;;;1.30;1.30;;;;;;;15.92;58.24;101908.59;4922975;28;98106;-47
2022/06/03 06:57:22;;;;;;;1.47;1.47;;;;;;;16.05;58.09;101903.34;4919889;28;100180;-53
2022/06/03 06:59:55;;;;;;;1.20;1.10;;;;;;;16.21;58.05;101916.50;4916120;28;97437;-49
2022/06/03 07:02:31;;;;;;;1.30;1.20;;;;;;;16.35;57.86;101914.78;4914233;28;97229;-49
2022/06/03 07:05:40;;;;;;;1.40;1.33;;;;;;;16.51;57.12;101918.88;4925015;28;97366;-48
2022/06/03 07:08:19;;;;;;;1.60;1.50;;;;;;;16.70;57.17;101915.13;4898650;28;101659;-54
2022/06/03 07:10:54;;;;;;;1.40;1.30;;;;;;;16.85;56.96;101906.53;4924439;28;96896;-49
2022/06/03 07:13:30;;;;;;;1.10;1.10;;;;;;;16.99;56.88;101899.97;4924215;28;97116;-50
2022/06/03 07:16:14;;;;;;;1.00;1.00;;;;;;;17.12;56.76;101908.53;4923574;28;101244;-50
2022/06/03 07:21:51;;;;;;;1.37;1.27;;;;;;;17.33;55.23;101903.44;4922843;28;97129;-49
2022/06/03 07:24:30;;;;;;;1.70;1.60;;;;;;;17.48;56.21;101903.91;4919232;28;97125;-50
2022/06/03 07:27:03;;;;;;;1.17;1.17;;;;;;;17.60;55.69;101908.97;4925084;28;98498;-51
2022/06/03 07:29:43;;;;;;;1.33;1.33;;;;;;;17.73;55.66;101898.06;4925890;28;97415;-50
2022/06/03 07:32:23;;;;;;;1.30;1.20;;;;;;;17.88;55.80;101897.72;4925497;28;97013;-48
2022/06/03 07:35:06;;;;;;;2.00;1.27;;;;;;;18.02;55.00;101896.63;4924907;28;96968;-48
2022/06/03 07:37:42;;;;;;;1.10;1.00;;;;;;;18.13;54.66;101893.78;4924497;28;97334;-48
2022/06/03 07:40:29;;;;;;;2.43;1.30;;;;;;;18.27;54.79;101878.78;4924844;28;97352;-49
2022/06/03 07:43:06;;;;;;;1.30;1.20;;;;;;;18.40;54.70;101887.31;4924679;28;96576;-52
2022/06/03 07:45:40;;;;;;;1.30;1.03;;;;;;;18.53;54.88;101887.50;4921804;28;97250;-49
2022/06/03 07:48:11;;;;;;;1.13;1.13;;;;;;;18.64;54.50;101875.50;4922316;28;97041;-49
2022/06/03 07:50:45;;;;;;;0.90;0.90;;;;;;;18.78;54.17;101881.97;4919739;28;97193;-49
2022/06/03 07:54:06;;;;;;;0.90;0.87;;;;;;;18.87;54.09;101879.59;4923815;28;97569;-52
2022/06/03 07:56:34;;;;;;;1.00;0.93;;;;;;;19.01;53.89;101886.06;4879019;28;97900;-49
2022/06/03 07:59:04;;;;;;;1.10;1.10;;;;;;;19.11;53.21;101878.91;4919391;28;101252;-49
2022/06/03 08:01:42;;;;;;;2.40;1.00;;;;;;;19.23;53.06;101874.69;4925952;28;100394;-51
2022/06/03 08:04:07;;;;;;;0.80;0.80;;;;;;;19.31;53.02;101868.00;4922832;28;97056;-48
2022/06/03 08:12:14;;;;;;;1.17;0.83;;;;;;;19.57;51.76;101861.91;4921177;28;103230;-48
2022/06/03 08:14:40;;;;;;;1.23;1.07;;;;;;;19.65;52.03;101862.06;4919716;28;96872;-49
2022/06/03 08:17:08;;;;;;;5.03;1.47;;;;;;;19.74;52.45;101865.25;4924011;28;97372;-51
2022/06/03 08:19:35;;;;;;;1.37;1.20;;;;;;;19.82;51.89;101862.63;4924947;28;97301;-49
2022/06/03 08:22:04;;;;;;;0.77;0.77;;;;;;;19.90;51.83;101857.94;4924746;28;97553;-50
2022/06/03 08:24:34;;;;;;;0.80;0.80;;;;;;;20.01;51.60;101855.75;4926962;28;96759;-52
2022/06/03 08:27:10;;;;;;;1.37;0.90;;;;;;;20.12;51.08;101858.38;4923945;28;97464;-49
2022/06/03 08:29:39;;;;;;;1.97;1.33;;;;;;;20.20;51.16;101858.53;4926711;28;98123;-49
2022/06/03 08:32:15;;;;;;;1.20;1.10;;;;;;;20.32;50.29;101859.91;4921715;28;97723;-48
2022/06/03 08:34:48;;;;;;;1.10;1.00;;;;;;;20.42;49.93;101861.00;4923822;28;97038;-48
2022/06/03 08:37:18;;;;;;;1.20;1.10;;;;;;;20.52;50.34;101850.19;4925381;28;97297;-49
2022/06/03 08:39:46;;;;;;;1.17;1.07;;;;;;;20.64;50.04;101857.13;4920761;28;97446;-52
2022/06/03 08:42:29;;;;;;;1.37;1.27;;;;;;;20.77;48.57;101855.09;4928089;28;97562;-54
2022/06/03 08:45:17;;;;;;;1.83;0.90;;;;;;;20.87;48.73;101861.78;4926948;28;96859;-50
2022/06/03 08:47:49;;;;;;;1.30;1.20;;;;;;;21.00;49.42;101857.50;4927268;28;97564;-49
2022/06/03 08:50:42;;;;;;;1.53;1.10;;;;;;;21.15;48.49;101849.34;4920133;28;100949;-49
2022/06/03 08:53:15;;;;;;;1.10;1.00;;;;;;;21.24;46.81;101843.34;4925044;28;100513;-52
2022/06/03 08:55:54;;;;;;;1.10;1.10;;;;;;;21.31;48.42;101846.25;4920790;28;96956;-52
2022/06/03 08:59:01;;;;;;;2.50;1.07;;;;;;;21.43;47.71;101835.56;4922879;28;96973;-50
2022/06/03 09:01:45;;;;;;;0.90;0.70;;;;;;;21.61;47.92;101840.28;4926036;28;100583;-51
2022/06/03 09:04:21;;;;;;;0.90;0.90;;;;;;;21.77;47.72;101844.03;4925081;28;100200;-48
2022/06/03 09:06:58;;;;;;;1.90;0.90;;;;;;;21.84;47.80;101840.59;4929241;28;96945;-49
2022/06/03 09:09:32;;;;;;;0.93;0.83;;;;;;;21.97;47.54;101838.53;4926862;28;96955;-51
2022/06/03 09:12:04;;;;;;;0.80;0.80;;;;;;;22.14;47.26;101838.13;4926730;28;98354;-52
2022/06/03 09:14:31;;;;;;;0.70;0.70;;;;;;;22.27;47.20;101844.44;4923657;28;98302;-49
2022/06/03 09:17:05;;;;;;;1.00;0.90;;;;;;;22.44;45.95;101846.09;4922621;28;97199;-48
2022/06/03 09:19:38;;;;;;;1.37;0.87;;;;;;;22.53;46.29;101840.75;4926361;28;97382;-49
2022/06/03 09:22:12;;;;;;;1.47;1.00;;;;;;;22.64;45.30;101834.13;4913702;28;97434;-49
2022/06/03 09:24:40;;;;;;;0.93;0.93;;;;;;;22.74;45.79;101829.53;4930588;28;97077;-51
2022/06/03 09:27:08;;;;;;;1.30;1.10;;;;;;;22.84;45.21;101828.50;4920691;28;97344;-48
2022/06/03 09:29:34;;;;;;;1.00;1.00;;;;;;;23.00;44.88;101832.91;4929214;28;97202;-50
2022/06/03 09:32:05;;;;;;;2.87;0.73;;;;;;;23.11;43.80;101831.84;4925233;28;97566;-50
2022/06/03 09:34:36;;;;;;;1.10;1.00;;;;;;;23.21;41.16;101830.06;4926182;28;97230;-49
2022/06/03 09:37:03;;;;;;;0.87;0.87;;;;;;;23.35;44.03;101816.69;4921192;28;97279;-51
2022/06/03 09:39:31;;;;;;;4.70;1.23;;;;;;;23.43;43.37;101823.84;4923625;28;97075;-49
2022/06/03 09:41:58;;;;;;;1.00;1.00;;;;;;;23.50;43.22;101828.00;4921486;28;100652;-49
2022/06/03 09:44:26;;;;;;;1.20;1.10;;;;;;;23.68;43.87;101815.69;4923315;28;97330;-51
2022/06/03 09:47:04;;;;;;;1.23;1.13;;;;;;;23.91;42.16;101818.56;4927576;28;97160;-49
2022/06/03 09:49:31;;;;;;;0.93;0.90;;;;;;;24.11;43.02;101814.91;4919498;28;97003;-48
2022/06/03 09:52:01;;;;;;;0.70;0.70;;;;;;;24.20;42.93;101811.56;4923860;28;98777;-48
2022/06/03 09:54:38;;;;;;;1.13;1.03;;;;;;;24.26;42.84;101809.31;4920703;28;97380;-51
2022/06/03 09:57:31;;;;;;;1.37;1.27;;;;;;;24.21;39.31;101805.34;4916612;28;96987;-49
2022/06/03 10:00:21;;;;;;;1.00;0.90;;;;;;;24.22;41.90;101809.66;4918076;28;97614;-51
2022/06/03 10:02:47;;;;;;;1.10;1.00;;;;;;;24.28;41.82;101812.31;4923538;28;100653;-50
2022/06/03 10:05:16;;;;;;;0.90;0.80;;;;;;;24.30;41.76;101810.44;4922265;28;97318;-50
2022/06/03 10:07:43;;;;;;;1.10;1.10;;;;;;;24.37;41.44;101803.31;4940404;23;97493;-47
2022/06/03 10:12:59;;;;;;;0.93;0.93;;;;;;;24.32;41.36;101801.44;4940032;28;100679;-47
2022/06/03 10:15:42;;;;;;;1.07;1.07;;;;;;;24.39;38.19;101809.13;4934747;28;97222;-47
2022/06/03 10:18:25;;;;;;;1.17;0.97;;;;;;;24.38;39.34;101797.13;4940989;28;97137;-48
2022/06/03 10:21:18;;;;;;;1.00;0.90;;;;;;;24.46;39.75;101806.31;4939295;28;103430;-48
2022/06/03 10:23:52;;;;;;;1.00;0.90;;;;;;;24.44;40.45;101786.41;4940670;28;101465;-48
2022/06/03 10:26:43;;;;;;;1.10;0.90;;;;;;;24.47;40.38;101782.50;4939520;28;96954;-48
2022/06/03 10:29:13;;;;;;;4.87;0.93;;;;;;;24.62;41.05;101786.63;4944140;28;97131;-47
2022/06/03 10:31:39;;;;;;;1.07;1.07;;;;;;;24.73;41.01;101777.78;4932840;28;97396;-47
2022/06/03 10:34:10;;;;;;;0.97;0.97;;;;;;;24.78;38.60;101783.25;4943251;28;97609;-48
2022/06/03 10:36:39;;;;;;;0.87;0.87;;;;;;;24.86;40.66;101771.97;4943331;28;97380;-47
2022/06/03 10:39:06;;;;;;;1.00;0.90;;;;;;;24.99;40.29;101769.69;4940858;28;96773;-47
2022/06/03 10:41:38;;;;;;;0.60;0.60;;;;;;;25.08;40.30;101766.28;4946790;28;97192;-47
2022/06/03 10:44:14;;;;;;;2.00;0.90;;;;;;;25.05;36.62;101756.13;4942937;28;97201;-48
2022/06/03 10:46:56;;;;;;;1.20;1.20;;;;;;;24.87;38.08;101760.16;4945264;28;97163;-48
2022/06/03 10:49:23;;;;;;;2.00;0.70;;;;;;;24.93;40.08;101759.94;4944080;28;97119;-48
2022/06/03 11:02:51;;;;;;;0.90;0.90;;;;;;;25.50;39.64;101746.03;4943095;28;97408;-48
2022/06/03 11:05:28;;;;;;;1.20;1.10;;;;;;;25.63;38.72;101754.22;4934695;28;107401;-52
2022/06/03 11:08:09;;;;;;;0.60;0.60;;;;;;;25.74;37.70;101750.97;4942394;28;96956;-48
2022/06/03 11:11:03;;;;;;;1.07;1.07;;;;;;;25.82;37.62;101746.78;4946375;28;96951;-50
2022/06/03 11:13:32;;;;;;;0.87;0.87;;;;;;;25.80;38.67;101743.03;4941331;28;97034;-47
2022/06/03 11:16:14;;;;;;;0.80;0.80;;;;;;;25.73;36.41;101726.94;4943153;28;96824;-50
2022/06/03 11:18:41;;;;;;;1.13;0.80;;;;;;;25.71;38.07;101727.50;4931558;28;97239;-47
2022/06/03 11:21:24;;;;;;;0.90;0.90;;;;;;;25.65;36.73;101729.03;4941189;28;97091;-49
2022/06/03 11:23:55;;;;;;;1.30;1.03;;;;;;;25.69;38.23;101720.94;4946213;28;97232;-50
2022/06/03 11:26:25;;;;;;;1.00;1.00;;;;;;;25.73;35.88;101710.75;4940565;28;97259;-47
2022/06/03 11:29:02;;;;;;;1.00;0.90;;;;;;;25.82;36.75;101721.41;4946319;28;97411;-47
2022/06/03 11:31:33;;;;;;;0.80;0.80;;;;;;;25.93;37.58;101723.03;4937153;28;105104;-47
2022/06/03 11:34:18;;;;;;;1.53;0.90;;;;;;;25.99;37.06;101717.91;4944285;28;97143;-49
2022/06/03 11:37:08;;;;;;;1.07;0.97;;;;;;;26.05;35.26;101698.69;4943017;28;100532;-50
2022/06/03 11:39:41;;;;;;;1.53;1.10;;;;;;;26.10;37.53;101692.09;4944637;28;97353;-47
2022/06/03 11:42:17;;;;;;;0.90;0.90;;;;;;;26.26;36.01;101698.34;4935522;28;97216;-52
2022/06/03 11:44:58;;;;;;;0.77;0.77;;;;;;;26.21;36.24;101696.50;4943067;28;97775;-49
2022/06/03 11:47:37;;;;;;;0.97;0.97;;;;;;;26.25;34.48;101694.03;4938680;28;101981;-49
2022/06/03 11:50:04;;;;;;;0.90;0.60;;;;;;;26.35;37.38;101689.22;4943748;28;97302;-47
2022/06/03 11:52:30;;;;;;;2.50;0.97;;;;;;;26.54;37.76;101690.16;4939849;28;96825;-47
2022/06/03 11:54:55;;;;;;;1.40;1.30;;;;;;;26.71;36.48;101681.69;4940940;28;97360;-48
2022/06/03 11:57:21;;;;;;;0.83;0.83;;;;;;;26.78;36.79;101677.31;4934542;28;97649;-49
2022/06/03 12:00:09;;;;;;;1.10;1.00;;;;;;;26.99;35.73;101682.53;4944470;28;98456;-48
2022/06/03 12:03:02;;;;;;;0.80;0.80;;;;;;;27.16;34.95;101674.00;4946224;28;101855;-48
2022/06/03 12:05:41;;;;;;;1.87;0.97;;;;;;;27.30;35.78;101663.84;4934942;28;97841;-49
2022/06/03 12:08:28;;;;;;;0.63;0.63;;;;;;;27.38;35.92;101676.56;4941765;28;101410;-53
2022/06/03 12:13:14;;;;;;;0.70;0.63;;;;;;;27.36;34.82;101673.59;4945510;28;101730;-46
2022/06/03 12:14:28;;;;;;;0.77;0.77;;;;;;;27.34;35.69;101667.00;4942992;28;97314;-48
2022/06/03 12:17:00;;;;;;;1.47;0.70;;;;;;;27.42;34.76;101670.47;4947102;28;96945;-47
2022/06/03 12:19:36;;;;;;;1.00;0.73;;;;;;;27.43;34.85;101666.34;4939827;28;97084;-49
2022/06/03 12:22:15;;;;;;;0.90;0.80;;;;;;;27.56;35.18;101668.03;4943943;28;98501;-50
2022/06/03 12:24:42;;;;;;;1.13;0.73;;;;;;;27.61;35.39;101659.25;4941926;28;97000;-48
2022/06/03 12:27:23;;;;;;;0.70;0.70;;;;;;;27.67;33.57;101642.03;4944672;28;96958;-50
2022/06/03 12:29:57;;;;;;;0.70;0.67;;;;;;;27.71;35.36;101650.81;4942201;28;97709;-49
2022/06/03 12:32:28;;;;;;;1.40;0.77;;;;;;;27.72;35.21;101643.84;4940149;28;97469;-50
2022/06/03 12:35:31;;;;;;;0.90;0.90;;;;;;;27.64;30.43;101648.84;4939314;28;97332;-49
2022/06/03 12:38:19;;;;;;;1.80;1.00;;;;;;;27.42;32.92;101636.56;4942318;28;97021;-47
2022/06/03 12:40:45;;;;;;;2.20;0.83;;;;;;;27.34;35.18;101631.00;4943593;28;101951;-49
2022/06/03 12:43:29;;;;;;;0.70;0.70;;;;;;;27.36;32.75;101616.31;4947641;28;97440;-51
2022/06/03 12:46:07;;;;;;;1.43;0.70;;;;;;;27.31;33.59;101622.94;4948796;28;97046;-47
2022/06/03 12:48:45;;;;;;;1.20;0.80;;;;;;;27.41;35.04;101615.28;4941126;28;96887;-50
2022/06/03 12:51:24;;;;;;;1.00;0.90;;;;;;;27.45;34.77;101615.59;4937780;28;97041;-47
2022/06/03 12:53:58;;;;;;;0.90;0.90;;;;;;;27.47;33.68;101621.41;4944378;28;102557;-48
2022/06/03 12:56:26;;;;;;;1.30;0.90;;;;;;;27.44;34.48;101623.34;4945450;28;97179;-49